McPherson, Kansas
Current Conditions -  °F | °C
As of 4:52 PM on Saturday 25 Oct 2014 (Local Time) from KHUT Reporting Station
Clear Clear  
Wind Chill: 88°   Ceiling: Unl
Heat Index: 88°   Visibility: 10mi
Dew Point: 56°   Wind: 13mph
Humidity: 34%   Direction: 170°S
Pressure: 30"   Gusts: NA
Location:  38.37°N, 97.67°W
Report Text: KHUT 252152Z 17011KT 10SM CLR 31/13 A3000 RMK AO2 SLP138 T03110133
Loading
Personal Weather Stations






























Interactive Weather Map
Tropical Storm Tracking
New forecast layout! Learn more

10-Day Weather Forecast

Advertisements
Track Severe Weather on mobile